sensor_id;sensor_type;location;lat;lon;timestamp;P1;durP1;ratioP1;P2;durP2;ratioP2
12127;SDS011;6127;57.702;11.904;2023-04-24T00:00:17;0.30;;;0.30;;
12127;SDS011;6127;57.702;11.904;2023-04-24T00:02:43;0.40;;;0.40;;
12127;SDS011;6127;57.702;11.904;2023-04-24T00:05:16;0.30;;;0.30;;
12127;SDS011;6127;57.702;11.904;2023-04-24T00:07:43;0.30;;;0.30;;
12127;SDS011;6127;57.702;11.904;2023-04-24T00:10:10;0.30;;;0.30;;
12127;SDS011;6127;57.702;11.904;2023-04-24T00:12:37;0.30;;;0.30;;
12127;SDS011;6127;57.702;11.904;2023-04-24T00:15:03;0.30;;;0.30;;
12127;SDS011;6127;57.702;11.904;2023-04-24T00:17:29;0.30;;;0.30;;
12127;SDS011;6127;57.702;11.904;2023-04-24T00:19:55;0.30;;;0.30;;
12127;SDS011;6127;57.702;11.904;2023-04-24T00:22:25;0.20;;;0.20;;
12127;SDS011;6127;57.702;11.904;2023-04-24T00:24:51;0.20;;;0.20;;
12127;SDS011;6127;57.702;11.904;2023-04-24T00:27:17;0.25;;;0.25;;
12127;SDS011;6127;57.702;11.904;2023-04-24T00:29:44;0.22;;;0.22;;
12127;SDS011;6127;57.702;11.904;2023-04-24T00:32:10;0.32;;;0.32;;
12127;SDS011;6127;57.702;11.904;2023-04-24T00:34:36;0.30;;;0.30;;
12127;SDS011;6127;57.702;11.904;2023-04-24T00:37:02;0.43;;;0.43;;
12127;SDS011;6127;57.702;11.904;2023-04-24T00:39:28;0.50;;;0.50;;
12127;SDS011;6127;57.702;11.904;2023-04-24T00:41:54;0.50;;;0.50;;
12127;SDS011;6127;57.702;11.904;2023-04-24T00:44:21;0.40;;;0.40;;
12127;SDS011;6127;57.702;11.904;2023-04-24T00:46:47;0.50;;;0.50;;
12127;SDS011;6127;57.702;11.904;2023-04-24T00:49:18;0.50;;;0.50;;
12127;SDS011;6127;57.702;11.904;2023-04-24T00:51:44;0.50;;;0.50;;
12127;SDS011;6127;57.702;11.904;2023-04-24T00:54:11;0.50;;;0.50;;
12127;SDS011;6127;57.702;11.904;2023-04-24T00:56:36;0.40;;;0.40;;
12127;SDS011;6127;57.702;11.904;2023-04-24T00:59:03;0.40;;;0.40;;
12127;SDS011;6127;57.702;11.904;2023-04-24T01:01:29;0.40;;;0.40;;
12127;SDS011;6127;57.702;11.904;2023-04-24T01:03:55;0.40;;;0.40;;
12127;SDS011;6127;57.702;11.904;2023-04-24T01:06:23;0.40;;;0.40;;
12127;SDS011;6127;57.702;11.904;2023-04-24T01:08:52;0.40;;;0.40;;
12127;SDS011;6127;57.702;11.904;2023-04-24T01:11:18;0.30;;;0.30;;
12127;SDS011;6127;57.702;11.904;2023-04-24T01:13:44;0.30;;;0.30;;
12127;SDS011;6127;57.702;11.904;2023-04-24T01:16:10;0.30;;;0.30;;
12127;SDS011;6127;57.702;11.904;2023-04-24T01:18:36;0.35;;;0.35;;
12127;SDS011;6127;57.702;11.904;2023-04-24T01:21:03;0.30;;;0.30;;
12127;SDS011;6127;57.702;11.904;2023-04-24T01:23:29;0.30;;;0.30;;
12127;SDS011;6127;57.702;11.904;2023-04-24T01:25:55;0.30;;;0.30;;
12127;SDS011;6127;57.702;11.904;2023-04-24T01:28:21;0.30;;;0.30;;
12127;SDS011;6127;57.702;11.904;2023-04-24T01:30:48;0.30;;;0.30;;
12127;SDS011;6127;57.702;11.904;2023-04-24T01:33:14;0.30;;;0.30;;
12127;SDS011;6127;57.702;11.904;2023-04-24T01:35:40;0.20;;;0.20;;
12127;SDS011;6127;57.702;11.904;2023-04-24T01:38:06;0.20;;;0.20;;
12127;SDS011;6127;57.702;11.904;2023-04-24T01:40:34;0.30;;;0.30;;
12127;SDS011;6127;57.702;11.904;2023-04-24T01:43:00;0.40;;;0.40;;
12127;SDS011;6127;57.702;11.904;2023-04-24T01:45:26;0.40;;;0.40;;
12127;SDS011;6127;57.702;11.904;2023-04-24T01:47:52;0.35;;;0.35;;
12127;SDS011;6127;57.702;11.904;2023-04-24T01:50:18;0.43;;;0.43;;
12127;SDS011;6127;57.702;11.904;2023-04-24T01:52:44;0.50;;;0.50;;
12127;SDS011;6127;57.702;11.904;2023-04-24T01:55:10;0.50;;;0.50;;
12127;SDS011;6127;57.702;11.904;2023-04-24T01:57:36;0.40;;;0.40;;
12127;SDS011;6127;57.702;11.904;2023-04-24T02:00:04;0.40;;;0.40;;
12127;SDS011;6127;57.702;11.904;2023-04-24T02:02:31;0.30;;;0.30;;
12127;SDS011;6127;57.702;11.904;2023-04-24T02:04:58;0.40;;;0.40;;
12127;SDS011;6127;57.702;11.904;2023-04-24T02:07:24;0.40;;;0.40;;
12127;SDS011;6127;57.702;11.904;2023-04-24T02:09:50;0.40;;;0.40;;
12127;SDS011;6127;57.702;11.904;2023-04-24T02:12:16;0.40;;;0.40;;
12127;SDS011;6127;57.702;11.904;2023-04-24T02:14:45;0.32;;;0.32;;
12127;SDS011;6127;57.702;11.904;2023-04-24T02:17:11;0.40;;;0.40;;
12127;SDS011;6127;57.702;11.904;2023-04-24T02:19:38;0.30;;;0.30;;
12127;SDS011;6127;57.702;11.904;2023-04-24T02:22:04;0.30;;;0.30;;
12127;SDS011;6127;57.702;11.904;2023-04-24T02:24:30;0.30;;;0.30;;
12127;SDS011;6127;57.702;11.904;2023-04-24T02:26:56;0.30;;;0.30;;
12127;SDS011;6127;57.702;11.904;2023-04-24T02:29:22;0.30;;;0.30;;
12127;SDS011;6127;57.702;11.904;2023-04-24T02:31:49;0.20;;;0.20;;
12127;SDS011;6127;57.702;11.904;2023-04-24T02:34:15;0.20;;;0.20;;
12127;SDS011;6127;57.702;11.904;2023-04-24T02:36:41;0.20;;;0.20;;
12127;SDS011;6127;57.702;11.904;2023-04-24T02:39:07;0.20;;;0.20;;
12127;SDS011;6127;57.702;11.904;2023-04-24T02:41:33;0.20;;;0.20;;
12127;SDS011;6127;57.702;11.904;2023-04-24T02:43:59;0.10;;;0.10;;
12127;SDS011;6127;57.702;11.904;2023-04-24T02:46:25;0.20;;;0.20;;
12127;SDS011;6127;57.702;11.904;2023-04-24T02:48:51;0.22;;;0.22;;
12127;SDS011;6127;57.702;11.904;2023-04-24T02:51:17;0.30;;;0.30;;
12127;SDS011;6127;57.702;11.904;2023-04-24T02:53:43;0.30;;;0.30;;
12127;SDS011;6127;57.702;11.904;2023-04-24T02:56:09;0.35;;;0.35;;
12127;SDS011;6127;57.702;11.904;2023-04-24T02:58:37;0.40;;;0.40;;
12127;SDS011;6127;57.702;11.904;2023-04-24T03:01:03;0.40;;;0.40;;
12127;SDS011;6127;57.702;11.904;2023-04-24T03:03:30;0.50;;;0.50;;
12127;SDS011;6127;57.702;11.904;2023-04-24T03:05:56;0.50;;;0.50;;
12127;SDS011;6127;57.702;11.904;2023-04-24T03:08:22;0.50;;;0.50;;
12127;SDS011;6127;57.702;11.904;2023-04-24T03:10:49;0.50;;;0.50;;
12127;SDS011;6127;57.702;11.904;2023-04-24T03:13:15;0.50;;;0.50;;
12127;SDS011;6127;57.702;11.904;2023-04-24T03:15:42;0.50;;;0.50;;
12127;SDS011;6127;57.702;11.904;2023-04-24T03:18:08;0.40;;;0.40;;
12127;SDS011;6127;57.702;11.904;2023-04-24T03:20:34;0.40;;;0.40;;
12127;SDS011;6127;57.702;11.904;2023-04-24T03:23:01;0.30;;;0.30;;
12127;SDS011;6127;57.702;11.904;2023-04-24T03:25:28;0.30;;;0.30;;
12127;SDS011;6127;57.702;11.904;2023-04-24T03:27:54;0.30;;;0.30;;
12127;SDS011;6127;57.702;11.904;2023-04-24T03:30:20;0.35;;;0.35;;
12127;SDS011;6127;57.702;11.904;2023-04-24T03:32:46;0.40;;;0.40;;
12127;SDS011;6127;57.702;11.904;2023-04-24T03:35:14;0.30;;;0.30;;
12127;SDS011;6127;57.702;11.904;2023-04-24T03:37:40;0.30;;;0.30;;
12127;SDS011;6127;57.702;11.904;2023-04-24T03:40:06;0.30;;;0.30;;
12127;SDS011;6127;57.702;11.904;2023-04-24T03:42:33;0.30;;;0.30;;
12127;SDS011;6127;57.702;11.904;2023-04-24T03:45:00;0.30;;;0.30;;
12127;SDS011;6127;57.702;11.904;2023-04-24T03:47:26;0.30;;;0.30;;
12127;SDS011;6127;57.702;11.904;2023-04-24T03:49:52;0.30;;;0.30;;
12127;SDS011;6127;57.702;11.904;2023-04-24T03:52:19;0.30;;;0.30;;
12127;SDS011;6127;57.702;11.904;2023-04-24T03:54:45;0.30;;;0.30;;
12127;SDS011;6127;57.702;11.904;2023-04-24T03:57:11;0.30;;;0.30;;
12127;SDS011;6127;57.702;11.904;2023-04-24T03:59:37;0.30;;;0.30;;
12127;SDS011;6127;57.702;11.904;2023-04-24T04:02:03;0.30;;;0.30;;
12127;SDS011;6127;57.702;11.904;2023-04-24T04:04:29;0.20;;;0.20;;
12127;SDS011;6127;57.702;11.904;2023-04-24T04:06:55;0.22;;;0.22;;
12127;SDS011;6127;57.702;11.904;2023-04-24T04:09:21;0.30;;;0.30;;
12127;SDS011;6127;57.702;11.904;2023-04-24T04:11:47;0.38;;;0.38;;
12127;SDS011;6127;57.702;11.904;2023-04-24T04:14:13;0.30;;;0.30;;
12127;SDS011;6127;57.702;11.904;2023-04-24T04:16:39;0.30;;;0.30;;
12127;SDS011;6127;57.702;11.904;2023-04-24T04:19:05;0.38;;;0.38;;
12127;SDS011;6127;57.702;11.904;2023-04-24T04:21:32;0.50;;;0.50;;
12127;SDS011;6127;57.702;11.904;2023-04-24T04:23:58;0.43;;;0.43;;
12127;SDS011;6127;57.702;11.904;2023-04-24T04:26:24;0.50;;;0.50;;
12127;SDS011;6127;57.702;11.904;2023-04-24T04:28:51;0.40;;;0.40;;
12127;SDS011;6127;57.702;11.904;2023-04-24T04:31:17;0.40;;;0.40;;
12127;SDS011;6127;57.702;11.904;2023-04-24T04:33:42;0.40;;;0.40;;
12127;SDS011;6127;57.702;11.904;2023-04-24T04:36:10;0.40;;;0.40;;
12127;SDS011;6127;57.702;11.904;2023-04-24T04:38:37;0.40;;;0.40;;
12127;SDS011;6127;57.702;11.904;2023-04-24T04:41:04;0.40;;;0.40;;
12127;SDS011;6127;57.702;11.904;2023-04-24T04:43:30;0.40;;;0.40;;
12127;SDS011;6127;57.702;11.904;2023-04-24T04:45:57;0.40;;;0.40;;
12127;SDS011;6127;57.702;11.904;2023-04-24T04:48:25;0.32;;;0.32;;
12127;SDS011;6127;57.702;11.904;2023-04-24T04:50:52;0.38;;;0.38;;
12127;SDS011;6127;57.702;11.904;2023-04-24T04:53:18;0.30;;;0.30;;
12127;SDS011;6127;57.702;11.904;2023-04-24T04:55:44;0.30;;;0.30;;
12127;SDS011;6127;57.702;11.904;2023-04-24T04:58:11;0.30;;;0.30;;
12127;SDS011;6127;57.702;11.904;2023-04-24T05:00:37;0.30;;;0.30;;
12127;SDS011;6127;57.702;11.904;2023-04-24T05:03:04;0.30;;;0.30;;
12127;SDS011;6127;57.702;11.904;2023-04-24T05:05:30;0.30;;;0.30;;
12127;SDS011;6127;57.702;11.904;2023-04-24T05:07:56;0.22;;;0.22;;
12127;SDS011;6127;57.702;11.904;2023-04-24T05:10:22;0.20;;;0.20;;
12127;SDS011;6127;57.702;11.904;2023-04-24T05:12:48;0.20;;;0.20;;
12127;SDS011;6127;57.702;11.904;2023-04-24T05:15:14;0.30;;;0.30;;
12127;SDS011;6127;57.702;11.904;2023-04-24T05:17:41;0.32;;;0.32;;
12127;SDS011;6127;57.702;11.904;2023-04-24T05:20:07;0.40;;;0.40;;
12127;SDS011;6127;57.702;11.904;2023-04-24T05:22:34;0.50;;;0.50;;
12127;SDS011;6127;57.702;11.904;2023-04-24T05:25:02;0.50;;;0.50;;
12127;SDS011;6127;57.702;11.904;2023-04-24T05:27:28;0.50;;;0.50;;
12127;SDS011;6127;57.702;11.904;2023-04-24T05:29:54;0.38;;;0.38;;
12127;SDS011;6127;57.702;11.904;2023-04-24T05:32:20;0.40;;;0.40;;
12127;SDS011;6127;57.702;11.904;2023-04-24T05:34:46;0.30;;;0.30;;
12127;SDS011;6127;57.702;11.904;2023-04-24T05:37:12;0.30;;;0.30;;
12127;SDS011;6127;57.702;11.904;2023-04-24T05:39:38;0.30;;;0.30;;
12127;SDS011;6127;57.702;11.904;2023-04-24T05:42:06;0.20;;;0.20;;
12127;SDS011;6127;57.702;11.904;2023-04-24T05:44:32;0.20;;;0.20;;
12127;SDS011;6127;57.702;11.904;2023-04-24T05:46:58;0.20;;;0.20;;
12127;SDS011;6127;57.702;11.904;2023-04-24T05:49:24;0.25;;;0.25;;
12127;SDS011;6127;57.702;11.904;2023-04-24T05:51:50;0.30;;;0.30;;
12127;SDS011;6127;57.702;11.904;2023-04-24T05:54:16;0.40;;;0.40;;
12127;SDS011;6127;57.702;11.904;2023-04-24T05:56:42;0.45;;;0.45;;
12127;SDS011;6127;57.702;11.904;2023-04-24T05:59:08;0.50;;;0.50;;
12127;SDS011;6127;57.702;11.904;2023-04-24T06:01:34;0.50;;;0.50;;
12127;SDS011;6127;57.702;11.904;2023-04-24T06:04:01;0.50;;;0.50;;
12127;SDS011;6127;57.702;11.904;2023-04-24T06:06:27;0.45;;;0.45;;
12127;SDS011;6127;57.702;11.904;2023-04-24T06:08:53;0.40;;;0.40;;
12127;SDS011;6127;57.702;11.904;2023-04-24T06:11:20;0.40;;;0.40;;
12127;SDS011;6127;57.702;11.904;2023-04-24T06:13:47;0.30;;;0.30;;
12127;SDS011;6127;57.702;11.904;2023-04-24T06:16:13;0.30;;;0.30;;
12127;SDS011;6127;57.702;11.904;2023-04-24T06:18:40;0.30;;;0.30;;
12127;SDS011;6127;57.702;11.904;2023-04-24T06:21:06;0.25;;;0.25;;
12127;SDS011;6127;57.702;11.904;2023-04-24T06:23:32;0.20;;;0.20;;
12127;SDS011;6127;57.702;11.904;2023-04-24T06:25:58;0.20;;;0.20;;
12127;SDS011;6127;57.702;11.904;2023-04-24T06:28:25;0.40;;;0.40;;
12127;SDS011;6127;57.702;11.904;2023-04-24T06:30:52;0.50;;;0.50;;
12127;SDS011;6127;57.702;11.904;2023-04-24T06:33:18;0.40;;;0.40;;
12127;SDS011;6127;57.702;11.904;2023-04-24T06:35:44;0.40;;;0.40;;
12127;SDS011;6127;57.702;11.904;2023-04-24T06:38:10;0.38;;;0.38;;
12127;SDS011;6127;57.702;11.904;2023-04-24T06:40:36;0.30;;;0.30;;
12127;SDS011;6127;57.702;11.904;2023-04-24T06:43:02;0.30;;;0.30;;
12127;SDS011;6127;57.702;11.904;2023-04-24T06:45:29;0.25;;;0.25;;
12127;SDS011;6127;57.702;11.904;2023-04-24T06:47:55;0.20;;;0.20;;
12127;SDS011;6127;57.702;11.904;2023-04-24T06:50:21;0.38;;;0.38;;
12127;SDS011;6127;57.702;11.904;2023-04-24T06:52:47;0.50;;;0.50;;
12127;SDS011;6127;57.702;11.904;2023-04-24T06:55:13;0.43;;;0.43;;
12127;SDS011;6127;57.702;11.904;2023-04-24T06:57:41;0.35;;;0.35;;
12127;SDS011;6127;57.702;11.904;2023-04-24T07:00:07;0.30;;;0.30;;
12127;SDS011;6127;57.702;11.904;2023-04-24T07:02:34;0.20;;;0.20;;
12127;SDS011;6127;57.702;11.904;2023-04-24T07:05:00;0.20;;;0.20;;
12127;SDS011;6127;57.702;11.904;2023-04-24T07:07:26;0.30;;;0.30;;
12127;SDS011;6127;57.702;11.904;2023-04-24T07:09:52;0.50;;;0.50;;
12127;SDS011;6127;57.702;11.904;2023-04-24T07:12:19;0.40;;;0.40;;
12127;SDS011;6127;57.702;11.904;2023-04-24T07:14:46;0.40;;;0.40;;
12127;SDS011;6127;57.702;11.904;2023-04-24T07:17:14;0.40;;;0.40;;
12127;SDS011;6127;57.702;11.904;2023-04-24T07:19:40;0.30;;;0.30;;
12127;SDS011;6127;57.702;11.904;2023-04-24T07:22:06;0.30;;;0.30;;
12127;SDS011;6127;57.702;11.904;2023-04-24T07:24:32;0.30;;;0.30;;
12127;SDS011;6127;57.702;11.904;2023-04-24T07:26:58;0.30;;;0.30;;
12127;SDS011;6127;57.702;11.904;2023-04-24T07:29:26;0.30;;;0.30;;
12127;SDS011;6127;57.702;11.904;2023-04-24T07:31:52;0.30;;;0.30;;
12127;SDS011;6127;57.702;11.904;2023-04-24T07:34:19;0.30;;;0.30;;
12127;SDS011;6127;57.702;11.904;2023-04-24T07:36:46;0.30;;;0.30;;
12127;SDS011;6127;57.702;11.904;2023-04-24T07:39:12;0.20;;;0.20;;
12127;SDS011;6127;57.702;11.904;2023-04-24T07:41:38;0.20;;;0.20;;
12127;SDS011;6127;57.702;11.904;2023-04-24T07:44:05;0.20;;;0.20;;
12127;SDS011;6127;57.702;11.904;2023-04-24T07:46:31;0.20;;;0.20;;
12127;SDS011;6127;57.702;11.904;2023-04-24T07:48:57;0.20;;;0.20;;
12127;SDS011;6127;57.702;11.904;2023-04-24T07:51:24;0.20;;;0.20;;
12127;SDS011;6127;57.702;11.904;2023-04-24T07:53:52;0.20;;;0.20;;
12127;SDS011;6127;57.702;11.904;2023-04-24T07:56:20;0.20;;;0.20;;
12127;SDS011;6127;57.702;11.904;2023-04-24T07:58:46;0.20;;;0.20;;
12127;SDS011;6127;57.702;11.904;2023-04-24T08:01:12;0.20;;;0.20;;
12127;SDS011;6127;57.702;11.904;2023-04-24T08:03:38;0.20;;;0.20;;
12127;SDS011;6127;57.702;11.904;2023-04-24T08:06:04;0.15;;;0.15;;
12127;SDS011;6127;57.702;11.904;2023-04-24T08:08:31;0.20;;;0.20;;
12127;SDS011;6127;57.702;11.904;2023-04-24T08:10:57;0.20;;;0.20;;
12127;SDS011;6127;57.702;11.904;2023-04-24T08:13:23;0.20;;;0.20;;
12127;SDS011;6127;57.702;11.904;2023-04-24T08:15:49;0.20;;;0.20;;
12127;SDS011;6127;57.702;11.904;2023-04-24T08:18:15;0.20;;;0.20;;
12127;SDS011;6127;57.702;11.904;2023-04-24T08:20:42;0.20;;;0.20;;
12127;SDS011;6127;57.702;11.904;2023-04-24T08:23:08;0.30;;;0.30;;
12127;SDS011;6127;57.702;11.904;2023-04-24T08:25:34;0.20;;;0.20;;
12127;SDS011;6127;57.702;11.904;2023-04-24T08:28:01;0.20;;;0.20;;
12127;SDS011;6127;57.702;11.904;2023-04-24T08:30:28;0.20;;;0.20;;
12127;SDS011;6127;57.702;11.904;2023-04-24T08:32:54;0.20;;;0.20;;
12127;SDS011;6127;57.702;11.904;2023-04-24T08:35:20;0.20;;;0.20;;
12127;SDS011;6127;57.702;11.904;2023-04-24T08:37:46;0.20;;;0.20;;
12127;SDS011;6127;57.702;11.904;2023-04-24T08:40:13;0.20;;;0.20;;
12127;SDS011;6127;57.702;11.904;2023-04-24T08:42:43;0.20;;;0.20;;
12127;SDS011;6127;57.702;11.904;2023-04-24T08:45:10;0.20;;;0.20;;
12127;SDS011;6127;57.702;11.904;2023-04-24T08:47:38;0.20;;;0.20;;
12127;SDS011;6127;57.702;11.904;2023-04-24T08:50:04;0.20;;;0.20;;
12127;SDS011;6127;57.702;11.904;2023-04-24T08:52:33;0.20;;;0.20;;
12127;SDS011;6127;57.702;11.904;2023-04-24T08:55:00;0.20;;;0.20;;
12127;SDS011;6127;57.702;11.904;2023-04-24T08:57:27;0.20;;;0.20;;
12127;SDS011;6127;57.702;11.904;2023-04-24T08:59:54;0.20;;;0.20;;
12127;SDS011;6127;57.702;11.904;2023-04-24T09:02:20;0.20;;;0.20;;
12127;SDS011;6127;57.702;11.904;2023-04-24T09:04:46;0.20;;;0.20;;
12127;SDS011;6127;57.702;11.904;2023-04-24T09:07:14;0.20;;;0.20;;
12127;SDS011;6127;57.702;11.904;2023-04-24T09:09:41;0.20;;;0.20;;
12127;SDS011;6127;57.702;11.904;2023-04-24T09:12:07;0.30;;;0.30;;
12127;SDS011;6127;57.702;11.904;2023-04-24T09:14:35;0.20;;;0.20;;
12127;SDS011;6127;57.702;11.904;2023-04-24T09:17:04;0.30;;;0.30;;
12127;SDS011;6127;57.702;11.904;2023-04-24T09:19:31;0.30;;;0.30;;
12127;SDS011;6127;57.702;11.904;2023-04-24T09:21:57;0.20;;;0.20;;
12127;SDS011;6127;57.702;11.904;2023-04-24T09:24:23;0.20;;;0.20;;
12127;SDS011;6127;57.702;11.904;2023-04-24T09:26:59;0.22;;;0.22;;
12127;SDS011;6127;57.702;11.904;2023-04-24T09:29:26;0.30;;;0.30;;
12127;SDS011;6127;57.702;11.904;2023-04-24T09:31:52;0.25;;;0.25;;
12127;SDS011;6127;57.702;11.904;2023-04-24T09:34:22;0.30;;;0.30;;
12127;SDS011;6127;57.702;11.904;2023-04-24T09:36:49;0.20;;;0.20;;
12127;SDS011;6127;57.702;11.904;2023-04-24T09:39:15;0.30;;;0.30;;
12127;SDS011;6127;57.702;11.904;2023-04-24T09:41:45;0.20;;;0.20;;
12127;SDS011;6127;57.702;11.904;2023-04-24T09:44:16;0.20;;;0.20;;
12127;SDS011;6127;57.702;11.904;2023-04-24T09:46:43;0.20;;;0.20;;
12127;SDS011;6127;57.702;11.904;2023-04-24T09:49:11;0.20;;;0.20;;
12127;SDS011;6127;57.702;11.904;2023-04-24T09:51:38;0.20;;;0.20;;
12127;SDS011;6127;57.702;11.904;2023-04-24T09:54:11;0.20;;;0.20;;
12127;SDS011;6127;57.702;11.904;2023-04-24T09:56:41;0.20;;;0.20;;
12127;SDS011;6127;57.702;11.904;2023-04-24T09:59:08;0.30;;;0.30;;
12127;SDS011;6127;57.702;11.904;2023-04-24T10:01:34;0.40;;;0.40;;
12127;SDS011;6127;57.702;11.904;2023-04-24T10:04:01;0.50;;;0.50;;
12127;SDS011;6127;57.702;11.904;2023-04-24T10:06:33;0.45;;;0.45;;
12127;SDS011;6127;57.702;11.904;2023-04-24T10:09:00;0.40;;;0.40;;
12127;SDS011;6127;57.702;11.904;2023-04-24T10:11:26;0.30;;;0.30;;
12127;SDS011;6127;57.702;11.904;2023-04-24T10:13:53;0.30;;;0.30;;
12127;SDS011;6127;57.702;11.904;2023-04-24T10:16:23;0.30;;;0.30;;
12127;SDS011;6127;57.702;11.904;2023-04-24T10:18:49;0.30;;;0.30;;
12127;SDS011;6127;57.702;11.904;2023-04-24T10:21:16;0.30;;;0.30;;
12127;SDS011;6127;57.702;11.904;2023-04-24T10:23:42;0.30;;;0.30;;
12127;SDS011;6127;57.702;11.904;2023-04-24T10:26:12;0.20;;;0.20;;
12127;SDS011;6127;57.702;11.904;2023-04-24T10:28:46;0.20;;;0.20;;
12127;SDS011;6127;57.702;11.904;2023-04-24T10:31:13;0.20;;;0.20;;
12127;SDS011;6127;57.702;11.904;2023-04-24T10:33:43;0.28;;;0.28;;
12127;SDS011;6127;57.702;11.904;2023-04-24T10:36:09;0.40;;;0.40;;
12127;SDS011;6127;57.702;11.904;2023-04-24T10:38:36;0.30;;;0.30;;
12127;SDS011;6127;57.702;11.904;2023-04-24T10:41:09;0.30;;;0.30;;
12127;SDS011;6127;57.702;11.904;2023-04-24T10:43:41;0.20;;;0.20;;
12127;SDS011;6127;57.702;11.904;2023-04-24T10:46:07;0.10;;;0.10;;
12127;SDS011;6127;57.702;11.904;2023-04-24T10:48:35;0.30;;;0.30;;
12127;SDS011;6127;57.702;11.904;2023-04-24T10:51:01;0.30;;;0.30;;
12127;SDS011;6127;57.702;11.904;2023-04-24T10:53:28;0.20;;;0.20;;
12127;SDS011;6127;57.702;11.904;2023-04-24T10:56:00;0.10;;;0.10;;
12127;SDS011;6127;57.702;11.904;2023-04-24T10:58:43;0.30;;;0.30;;
12127;SDS011;6127;57.702;11.904;2023-04-24T11:03:59;0.20;;;0.20;;
12127;SDS011;6127;57.702;11.904;2023-04-24T11:06:35;0.40;;;0.40;;
12127;SDS011;6127;57.702;11.904;2023-04-24T11:11:32;0.30;;;0.30;;
12127;SDS011;6127;57.702;11.904;2023-04-24T11:19:01;0.20;;;0.20;;
12127;SDS011;6127;57.702;11.904;2023-04-24T11:21:43;0.35;;;0.35;;
12127;SDS011;6127;57.702;11.904;2023-04-24T11:26:48;0.40;;;0.40;;
12127;SDS011;6127;57.702;11.904;2023-04-24T11:29:15;0.30;;;0.30;;
12127;SDS011;6127;57.702;11.904;2023-04-24T11:31:41;0.20;;;0.20;;
12127;SDS011;6127;57.702;11.904;2023-04-24T11:34:15;0.30;;;0.30;;
12127;SDS011;6127;57.702;11.904;2023-04-24T11:36:45;0.30;;;0.30;;
12127;SDS011;6127;57.702;11.904;2023-04-24T11:39:12;0.30;;;0.30;;
12127;SDS011;6127;57.702;11.904;2023-04-24T11:41:38;0.10;;;0.10;;
12127;SDS011;6127;57.702;11.904;2023-04-24T11:44:08;0.40;;;0.40;;
12127;SDS011;6127;57.702;11.904;2023-04-24T11:46:36;0.20;;;0.20;;
12127;SDS011;6127;57.702;11.904;2023-04-24T11:49:04;0.30;;;0.30;;
12127;SDS011;6127;57.702;11.904;2023-04-24T11:51:31;0.40;;;0.40;;
12127;SDS011;6127;57.702;11.904;2023-04-24T11:53:58;0.20;;;0.20;;
12127;SDS011;6127;57.702;11.904;2023-04-24T11:56:24;0.30;;;0.30;;
12127;SDS011;6127;57.702;11.904;2023-04-24T11:58:53;0.28;;;0.28;;
12127;SDS011;6127;57.702;11.904;2023-04-24T12:01:20;0.30;;;0.30;;
12127;SDS011;6127;57.702;11.904;2023-04-24T12:03:49;0.30;;;0.30;;
12127;SDS011;6127;57.702;11.904;2023-04-24T12:06:16;0.25;;;0.25;;
12127;SDS011;6127;57.702;11.904;2023-04-24T12:08:45;0.30;;;0.30;;
12127;SDS011;6127;57.702;11.904;2023-04-24T12:11:14;0.20;;;0.20;;
12127;SDS011;6127;57.702;11.904;2023-04-24T12:13:40;0.30;;;0.30;;
12127;SDS011;6127;57.702;11.904;2023-04-24T12:16:06;0.30;;;0.30;;
12127;SDS011;6127;57.702;11.904;2023-04-24T12:18:32;0.30;;;0.30;;
12127;SDS011;6127;57.702;11.904;2023-04-24T12:21:14;0.20;;;0.20;;
12127;SDS011;6127;57.702;11.904;2023-04-24T12:23:42;0.40;;;0.40;;
12127;SDS011;6127;57.702;11.904;2023-04-24T12:26:08;0.20;;;0.20;;
12127;SDS011;6127;57.702;11.904;2023-04-24T12:31:38;0.30;;;0.30;;
12127;SDS011;6127;57.702;11.904;2023-04-24T12:34:11;0.32;;;0.32;;
12127;SDS011;6127;57.702;11.904;2023-04-24T12:36:42;0.30;;;0.30;;
12127;SDS011;6127;57.702;11.904;2023-04-24T12:39:14;0.20;;;0.20;;
12127;SDS011;6127;57.702;11.904;2023-04-24T12:41:49;0.40;;;0.40;;
12127;SDS011;6127;57.702;11.904;2023-04-24T12:44:16;0.30;;;0.30;;
12127;SDS011;6127;57.702;11.904;2023-04-24T12:46:43;0.20;;;0.20;;
12127;SDS011;6127;57.702;11.904;2023-04-24T12:49:09;0.20;;;0.20;;
12127;SDS011;6127;57.702;11.904;2023-04-24T12:51:35;0.37;;;0.37;;
12127;SDS011;6127;57.702;11.904;2023-04-24T12:54:01;0.40;;;0.40;;
12127;SDS011;6127;57.702;11.904;2023-04-24T12:56:29;0.25;;;0.25;;
12127;SDS011;6127;57.702;11.904;2023-04-24T12:58:56;0.30;;;0.30;;
12127;SDS011;6127;57.702;11.904;2023-04-24T13:01:22;0.40;;;0.40;;
12127;SDS011;6127;57.702;11.904;2023-04-24T13:03:48;0.30;;;0.30;;
12127;SDS011;6127;57.702;11.904;2023-04-24T13:06:14;0.20;;;0.20;;
12127;SDS011;6127;57.702;11.904;2023-04-24T13:08:40;0.30;;;0.30;;
12127;SDS011;6127;57.702;11.904;2023-04-24T13:11:06;0.40;;;0.40;;
12127;SDS011;6127;57.702;11.904;2023-04-24T13:13:32;0.30;;;0.30;;
12127;SDS011;6127;57.702;11.904;2023-04-24T13:15:58;0.20;;;0.20;;
12127;SDS011;6127;57.702;11.904;2023-04-24T13:18:24;0.40;;;0.40;;
12127;SDS011;6127;57.702;11.904;2023-04-24T13:20:50;0.20;;;0.20;;
12127;SDS011;6127;57.702;11.904;2023-04-24T13:23:16;0.28;;;0.28;;
12127;SDS011;6127;57.702;11.904;2023-04-24T13:25:42;0.40;;;0.40;;
12127;SDS011;6127;57.702;11.904;2023-04-24T13:28:08;0.30;;;0.30;;
12127;SDS011;6127;57.702;11.904;2023-04-24T13:30:34;0.20;;;0.20;;
12127;SDS011;6127;57.702;11.904;2023-04-24T13:33:00;0.30;;;0.30;;
12127;SDS011;6127;57.702;11.904;2023-04-24T13:35:26;0.30;;;0.30;;
12127;SDS011;6127;57.702;11.904;2023-04-24T13:37:54;0.20;;;0.20;;
12127;SDS011;6127;57.702;11.904;2023-04-24T13:40:20;0.20;;;0.20;;
12127;SDS011;6127;57.702;11.904;2023-04-24T13:42:46;0.20;;;0.20;;
12127;SDS011;6127;57.702;11.904;2023-04-24T13:45:12;0.30;;;0.30;;
12127;SDS011;6127;57.702;11.904;2023-04-24T13:47:38;0.30;;;0.30;;
12127;SDS011;6127;57.702;11.904;2023-04-24T13:50:06;0.15;;;0.15;;
12127;SDS011;6127;57.702;11.904;2023-04-24T13:52:32;0.40;;;0.40;;
12127;SDS011;6127;57.702;11.904;2023-04-24T13:54:58;0.30;;;0.30;;
12127;SDS011;6127;57.702;11.904;2023-04-24T13:57:25;0.20;;;0.20;;
12127;SDS011;6127;57.702;11.904;2023-04-24T13:59:51;0.30;;;0.30;;
12127;SDS011;6127;57.702;11.904;2023-04-24T14:02:17;0.30;;;0.30;;
12127;SDS011;6127;57.702;11.904;2023-04-24T14:04:43;0.30;;;0.30;;
12127;SDS011;6127;57.702;11.904;2023-04-24T14:07:09;0.20;;;0.20;;
12127;SDS011;6127;57.702;11.904;2023-04-24T14:09:35;0.30;;;0.30;;
12127;SDS011;6127;57.702;11.904;2023-04-24T14:12:01;0.38;;;0.38;;
12127;SDS011;6127;57.702;11.904;2023-04-24T14:14:28;0.30;;;0.30;;
12127;SDS011;6127;57.702;11.904;2023-04-24T14:16:54;0.20;;;0.20;;
12127;SDS011;6127;57.702;11.904;2023-04-24T14:19:20;0.30;;;0.30;;
12127;SDS011;6127;57.702;11.904;2023-04-24T14:21:47;0.40;;;0.40;;
12127;SDS011;6127;57.702;11.904;2023-04-24T14:24:13;0.30;;;0.30;;
12127;SDS011;6127;57.702;11.904;2023-04-24T14:26:39;0.20;;;0.20;;
12127;SDS011;6127;57.702;11.904;2023-04-24T14:29:06;0.30;;;0.30;;
12127;SDS011;6127;57.702;11.904;2023-04-24T14:31:32;0.30;;;0.30;;
12127;SDS011;6127;57.702;11.904;2023-04-24T14:33:58;0.20;;;0.20;;
12127;SDS011;6127;57.702;11.904;2023-04-24T14:36:24;0.20;;;0.20;;
12127;SDS011;6127;57.702;11.904;2023-04-24T14:38:50;0.32;;;0.32;;
12127;SDS011;6127;57.702;11.904;2023-04-24T14:41:16;0.40;;;0.40;;
12127;SDS011;6127;57.702;11.904;2023-04-24T14:43:42;0.30;;;0.30;;
12127;SDS011;6127;57.702;11.904;2023-04-24T14:46:08;0.20;;;0.20;;
12127;SDS011;6127;57.702;11.904;2023-04-24T14:48:35;0.40;;;0.40;;
12127;SDS011;6127;57.702;11.904;2023-04-24T14:51:01;0.40;;;0.40;;
12127;SDS011;6127;57.702;11.904;2023-04-24T14:53:27;0.30;;;0.30;;
12127;SDS011;6127;57.702;11.904;2023-04-24T14:55:53;0.30;;;0.30;;
12127;SDS011;6127;57.702;11.904;2023-04-24T14:58:19;0.25;;;0.25;;
12127;SDS011;6127;57.702;11.904;2023-04-24T15:00:45;0.40;;;0.40;;